home / openregs

legislation_cosponsors

Cosponsors for tracked legislation. Distinguishes original cosponsors (signed on at introduction) from later additions. Linked to congress_members via bioguide_id.

Data license: Public Domain (U.S. Government data) · Data source: Federal Register API & Regulations.gov API

34 rows where bill_id = "103-hr-3687" sorted by sponsorship_date descending

✎ View and edit SQL

This data as json, CSV (advanced)

Suggested facets: party, state, sponsorship_date, sponsorship_date (date)

is_original_cosponsor 2

  • 1 28
  • 0 6
Link bill_id bioguide_id full_name party state sponsorship_date ▲ is_original_cosponsor
103-hr-3687,P000034 To cancel the Space Station program. 103-hr-3687 P000034 Rep. Pallone, Frank, Jr. [D-NJ-6] D NJ 1994-09-12 0
103-hr-3687,C000767 To cancel the Space Station program. 103-hr-3687 C000767 Rep. Coppersmith, Sam [D-AZ-1] D AZ 1994-07-25 0
103-hr-3687,W000326 To cancel the Space Station program. 103-hr-3687 W000326 Rep. Wheat, Alan [D-MO-5] D MO 1994-01-25 0
103-hr-3687,M000100 To cancel the Space Station program. 103-hr-3687 M000100 Rep. Mann, David [D-OH-1] D OH 1994-01-25 0
103-hr-3687,B000104 To cancel the Space Station program. 103-hr-3687 B000104 Rep. Ballenger, Cass [R-NC-10] R NC 1994-01-25 0
103-hr-3687,R000122 To cancel the Space Station program. 103-hr-3687 R000122 Rep. Reed, Jack [D-RI-2] D RI 1994-01-25 0
103-hr-3687,M000087 To cancel the Space Station program. 103-hr-3687 M000087 Rep. Maloney, Carolyn B. [D-NY-14] D NY 1993-11-22 1
103-hr-3687,P000215 To cancel the Space Station program. 103-hr-3687 P000215 Rep. Penny, Timothy J. [D-MN-1] D MN 1993-11-22 1
103-hr-3687,B000177 To cancel the Space Station program. 103-hr-3687 B000177 Rep. Barrett, Thomas M. [D-WI-5] D WI 1993-11-22 1
103-hr-3687,F000339 To cancel the Space Station program. 103-hr-3687 F000339 Rep. Frank, Barney [D-MA-4] D MA 1993-11-22 1
103-hr-3687,S001144 To cancel the Space Station program. 103-hr-3687 S001144 Rep. Shays, Christopher [R-CT-4] R CT 1993-11-22 1
103-hr-3687,R000033 To cancel the Space Station program. 103-hr-3687 R000033 Rep. Ramstad, Jim [R-MN-3] R MN 1993-11-22 1
103-hr-3687,P000422 To cancel the Space Station program. 103-hr-3687 P000422 Rep. Pomeroy, Earl [D-ND-At Large] D ND 1993-11-22 1
103-hr-3687,H000676 To cancel the Space Station program. 103-hr-3687 H000676 Rep. Hoekstra, Peter [R-MI-2] R MI 1993-11-22 1
103-hr-3687,M000627 To cancel the Space Station program. 103-hr-3687 M000627 Rep. Meehan, Martin T. [D-MA-5] D MA 1993-11-22 1
103-hr-3687,S001004 To cancel the Space Station program. 103-hr-3687 S001004 Rep. Strickland, Ted [D-OH-6] D OH 1993-11-22 1
103-hr-3687,D000563 To cancel the Space Station program. 103-hr-3687 D000563 Rep. Durbin, Richard J. [D-IL-20] D IL 1993-11-22 1
103-hr-3687,V000087 To cancel the Space Station program. 103-hr-3687 V000087 Rep. Vento, Bruce F. [D-MN-4] D MN 1993-11-22 1
103-hr-3687,B001226 To cancel the Space Station program. 103-hr-3687 B001226 Rep. Barca, Peter [D-WI-1] D WI 1993-11-22 1
103-hr-3687,A000211 To cancel the Space Station program. 103-hr-3687 A000211 Rep. Andrews, Thomas H. [D-ME-1] D ME 1993-11-22 1
103-hr-3687,P000452 To cancel the Space Station program. 103-hr-3687 P000452 Rep. Poshard, Glenn [D-IL-19] D IL 1993-11-22 1
103-hr-3687,D000046 To cancel the Space Station program. 103-hr-3687 D000046 Rep. Danner, Pat [D-MO-6] D MO 1993-11-22 1
103-hr-3687,R000465 To cancel the Space Station program. 103-hr-3687 R000465 Rep. Roukema, Marge [R-NJ-5] R NJ 1993-11-22 1
103-hr-3687,K000262 To cancel the Space Station program. 103-hr-3687 K000262 Rep. Klein, Herbert C. [D-NJ-8] D NJ 1993-11-22 1
103-hr-3687,L000098 To cancel the Space Station program. 103-hr-3687 L000098 Rep. LaRocco, Larry [D-ID-1] D ID 1993-11-22 1
103-hr-3687,D000191 To cancel the Space Station program. 103-hr-3687 D000191 Rep. DeFazio, Peter A. [D-OR-4] D OR 1993-11-22 1
103-hr-3687,C000714 To cancel the Space Station program. 103-hr-3687 C000714 Rep. Conyers, John, Jr. [D-MI-14] D MI 1993-11-22 1
103-hr-3687,K000259 To cancel the Space Station program. 103-hr-3687 K000259 Rep. Kleczka, Gerald D. [D-WI-4] D WI 1993-11-22 1
103-hr-3687,H000930 To cancel the Space Station program. 103-hr-3687 H000930 Rep. Hughes, William J. [D-NJ-2] D NJ 1993-11-22 1
103-hr-3687,S000148 To cancel the Space Station program. 103-hr-3687 S000148 Rep. Schumer, Charles E. [D-NY-9] D NY 1993-11-22 1
103-hr-3687,P000444 To cancel the Space Station program. 103-hr-3687 P000444 Rep. Porter, John Edward [R-IL-10] R IL 1993-11-22 1
103-hr-3687,P000149 To cancel the Space Station program. 103-hr-3687 P000149 Rep. Payne, Donald M. [D-NJ-10] D NJ 1993-11-22 1
103-hr-3687,S000294 To cancel the Space Station program. 103-hr-3687 S000294 Rep. Sharp, Philip R. [D-IN-2] D IN 1993-11-22 1
103-hr-3687,H000323 To cancel the Space Station program. 103-hr-3687 H000323 Rep. Hastert, J. Dennis [R-IL-14] R IL 1993-11-22 1

Advanced export

JSON shape: default, array, newline-delimited, object

CSV options:

CREATE TABLE legislation_cosponsors (
    bill_id TEXT NOT NULL REFERENCES legislation(bill_id),
    bioguide_id TEXT NOT NULL,
    full_name TEXT,
    party TEXT,
    state TEXT,
    sponsorship_date TEXT,
    is_original_cosponsor INTEGER,
    PRIMARY KEY (bill_id, bioguide_id)
);
CREATE INDEX idx_lc_bioguide ON legislation_cosponsors(bioguide_id);
CREATE INDEX idx_lc_bill ON legislation_cosponsors(bill_id);
CREATE INDEX idx_lc_original ON legislation_cosponsors(is_original_cosponsor);
Powered by Datasette · Queries took 271.874ms · Data license: Public Domain (U.S. Government data) · Data source: Federal Register API & Regulations.gov API